Saint Stephens, Alabama
Current Conditions -  °F | °C
As of 6:56 PM on Tuesday 27 Jan 2015 (Local Time) from KMOB Reporting Station
Clear Clear  
Wind Chill: 52°   Ceiling: Unl
Heat Index: 52°   Visibility: 10mi
Dew Point: 36°   Wind: 0mph
Humidity: 54%   Direction: NA
Pressure: 30.09"   Gusts: NA
Location:  31.54°N, 88.06°W
Report Text: KMOB 280056Z 00000KT 10SM CLR 11/02 A3009 RMK AO2 SLP189 T01110022
Loading
Personal Weather Stations






























Interactive Weather Map New forecast layout! Learn more

10-Day Weather Forecast

Advertisements
Track Severe Weather on mobile